Time;durP1;ratioP1;P1;durP2;ratioP2;P2;SDS_P1;SDS_P2;PMS_P1;PMS_P2;Temp;Humidity;BMP_temperature;BMP_pressure;BME280_temperature;BME280_humidity;BME280_pressure;Samples;Min_cycle;Max_cycle;Signal;HPM_P1;HPM_P2
2023/08/24 00:00:21;;;;;;;6.90;3.00;;;29.10;99.90;;;;;;5126977;28;20082;-56
2023/08/24 00:02:48;;;;;;;4.68;2.90;;;29.10;99.90;;;;;;5126531;28;20028;-51
2023/08/24 00:05:14;;;;;;;5.22;2.90;;;29.10;99.90;;;;;;5126449;28;20035;-48
2023/08/24 00:07:42;;;;;;;3.70;2.92;;;29.10;99.90;;;;;;5126461;28;20019;-52
2023/08/24 00:10:09;;;;;;;2.63;2.42;;;29.10;99.90;;;;;;5126661;28;20015;-50
2023/08/24 00:12:36;;;;;;;3.67;2.58;;;29.10;99.90;;;;;;5126287;28;20137;-53
2023/08/24 00:15:02;;;;;;;3.90;2.38;;;29.10;99.90;;;;;;5126328;28;20083;-54
2023/08/24 00:17:30;;;;;;;5.25;2.35;;;29.20;99.90;;;;;;5126302;28;20039;-50
2023/08/24 00:19:57;;;;;;;4.30;2.20;;;29.10;99.90;;;;;;5126233;28;20039;-58
2023/08/24 00:22:25;;;;;;;5.45;2.08;;;29.10;99.90;;;;;;5126278;28;20034;-56
2023/08/24 00:24:51;;;;;;;3.00;2.35;;;29.10;99.90;;;;;;5126164;28;20092;-58
2023/08/24 00:27:18;;;;;;;2.78;2.15;;;29.20;99.90;;;;;;5125504;28;20027;-59
2023/08/24 00:29:44;;;;;;;4.28;2.70;;;29.10;99.90;;;;;;5125575;28;20064;-58
2023/08/24 00:32:11;;;;;;;5.85;2.42;;;29.10;99.90;;;;;;5125932;28;20372;-56
2023/08/24 00:34:38;;;;;;;3.30;2.28;;;29.00;99.90;;;;;;5126040;28;20038;-57
2023/08/24 00:37:04;;;;;;;5.38;2.17;;;29.00;99.90;;;;;;5125770;28;20346;-51
2023/08/24 00:39:31;;;;;;;4.88;2.50;;;29.00;99.90;;;;;;5126017;28;20311;-54
2023/08/24 00:41:58;;;;;;;9.35;3.33;;;29.10;99.90;;;;;;5125828;28;20035;-50
2023/08/24 00:44:24;;;;;;;3.88;2.70;;;29.10;99.90;;;;;;5125646;28;20019;-50
2023/08/24 00:46:52;;;;;;;9.27;3.08;;;29.10;99.90;;;;;;5125776;28;20046;-55
2023/08/24 00:49:18;;;;;;;2.85;2.45;;;29.00;99.90;;;;;;5125762;28;20031;-54
2023/08/24 00:51:45;;;;;;;3.92;2.45;;;29.00;99.90;;;;;;5125406;28;20016;-50
2023/08/24 00:54:12;;;;;;;7.50;3.00;;;29.00;99.90;;;;;;5125699;28;20065;-52
2023/08/24 00:56:38;;;;;;;12.10;3.45;;;29.00;99.90;;;;;;5125470;28;20032;-55
2023/08/24 00:59:05;;;;;;;11.38;3.50;;;29.00;99.90;;;;;;5125176;28;20189;-50
2023/08/24 01:01:31;;;;;;;20.98;3.55;;;29.00;99.90;;;;;;5123383;27;20023;-52
2023/08/24 01:03:58;;;;;;;10.52;3.67;;;29.00;99.90;;;;;;5116442;28;20028;-48
2023/08/24 01:06:27;;;;;;;6.78;2.67;;;28.90;99.90;;;;;;5109700;28;20335;-51
2023/08/24 01:08:54;;;;;;;5.43;2.70;;;29.00;99.90;;;;;;5114164;28;20024;-49
2023/08/24 01:11:23;;;;;;;5.68;2.42;;;29.00;99.90;;;;;;5107674;28;20031;-49
2023/08/24 01:14:04;;;;;;;5.45;2.83;;;29.00;99.90;;;;;;5109191;28;20016;-54
2023/08/24 01:16:36;;;;;;;6.22;3.20;;;29.00;99.90;;;;;;5113499;28;20059;-54
2023/08/24 01:19:06;;;;;;;6.47;2.92;;;29.00;99.90;;;;;;5111965;27;20066;-51
2023/08/24 01:21:33;;;;;;;5.30;2.72;;;29.00;99.90;;;;;;5120947;28;20020;-51
2023/08/24 01:24:19;;;;;;;4.05;2.55;;;28.90;99.90;;;;;;5124478;28;20359;-48
2023/08/24 01:26:48;;;;;;;3.78;2.30;;;28.80;99.90;;;;;;5122240;28;20016;-45
2023/08/24 01:29:15;;;;;;;4.57;2.13;;;28.80;99.90;;;;;;5123448;28;20016;-45
2023/08/24 01:31:42;;;;;;;7.38;2.28;;;28.80;99.90;;;;;;5121956;28;20027;-52
2023/08/24 01:34:09;;;;;;;5.65;2.20;;;28.70;99.90;;;;;;5124373;28;20036;-46
2023/08/24 01:36:36;;;;;;;4.93;2.28;;;28.80;99.90;;;;;;5116605;28;20083;-43
2023/08/24 01:39:30;;;;;;;2.97;1.95;;;28.80;99.90;;;;;;5111820;28;20087;-48
2023/08/24 01:42:04;;;;;;;3.85;2.25;;;28.80;99.90;;;;;;5107724;28;20061;-43
2023/08/24 01:44:37;;;;;;;4.10;2.22;;;28.90;99.90;;;;;;5114040;28;20027;-50
2023/08/24 01:47:05;;;;;;;5.50;2.47;;;28.80;99.90;;;;;;5116105;28;20028;-49
2023/08/24 01:49:36;;;;;;;3.78;2.30;;;28.70;99.90;;;;;;5114479;28;20027;-46
2023/08/24 01:52:04;;;;;;;3.95;2.20;;;28.70;99.90;;;;;;5115505;28;20219;-53
2023/08/24 01:54:31;;;;;;;3.83;2.33;;;28.80;99.90;;;;;;5104245;28;20039;-52
2023/08/24 01:56:57;;;;;;;4.72;2.10;;;28.80;99.90;;;;;;5112709;28;20058;-52
2023/08/24 01:59:24;;;;;;;4.25;3.33;;;28.80;99.90;;;;;;5110326;28;20036;-54
2023/08/24 02:01:50;;;;;;;4.70;3.03;;;28.80;99.90;;;;;;5110050;28;20042;-43
2023/08/24 02:04:17;;;;;;;4.28;2.50;;;28.90;99.90;;;;;;5109048;28;20146;-43
2023/08/24 02:06:44;;;;;;;4.45;2.60;;;28.90;99.90;;;;;;5104069;28;20038;-53
2023/08/24 02:09:10;;;;;;;7.65;2.53;;;28.80;99.90;;;;;;5104015;28;20069;-46
2023/08/24 02:11:37;;;;;;;5.65;2.13;;;28.90;99.90;;;;;;5106499;28;20083;-45
2023/08/24 02:14:05;;;;;;;4.38;2.22;;;28.90;99.90;;;;;;5112142;28;20028;-43
2023/08/24 02:16:31;;;;;;;3.92;2.20;;;28.90;99.90;;;;;;5113137;28;20362;-50
2023/08/24 02:18:58;;;;;;;6.60;2.35;;;28.90;99.90;;;;;;5109180;28;20024;-43
2023/08/24 02:21:25;;;;;;;4.97;2.33;;;29.00;99.90;;;;;;5113025;28;20027;-54
2023/08/24 02:23:51;;;;;;;4.78;2.50;;;29.00;99.90;;;;;;5105230;28;20024;-47
2023/08/24 02:26:18;;;;;;;5.55;2.00;;;28.80;99.90;;;;;;5103619;28;20052;-42
2023/08/24 02:28:45;;;;;;;4.43;1.90;;;28.80;99.90;;;;;;5102619;28;20031;-45
2023/08/24 02:31:11;;;;;;;8.82;2.47;;;28.80;99.90;;;;;;5103991;28;20035;-47
2023/08/24 02:33:38;;;;;;;8.90;2.58;;;28.80;99.90;;;;;;5106669;28;20061;-51
2023/08/24 02:36:05;;;;;;;8.23;2.22;;;28.90;99.90;;;;;;5113235;28;20107;-46
2023/08/24 02:38:31;;;;;;;12.07;2.20;;;28.80;99.90;;;;;;5103651;28;20347;-44
2023/08/24 02:41:06;;;;;;;4.80;1.90;;;28.90;99.90;;;;;;5110292;28;20300;-55
2023/08/24 02:43:34;;;;;;;7.15;2.80;;;28.80;99.90;;;;;;5117527;28;20091;-50
2023/08/24 02:46:05;;;;;;;10.88;3.00;;;28.80;99.90;;;;;;5115516;28;20032;-46
2023/08/24 02:48:32;;;;;;;4.03;2.33;;;28.80;99.90;;;;;;5117485;28;20051;-49
2023/08/24 02:51:00;;;;;;;7.70;2.30;;;28.90;99.90;;;;;;5105273;28;20035;-45
2023/08/24 02:53:28;;;;;;;6.13;2.30;;;28.90;99.90;;;;;;5107576;28;20032;-46
2023/08/24 02:55:57;;;;;;;2.60;1.95;;;28.90;99.90;;;;;;5107697;28;20208;-45
2023/08/24 02:58:23;;;;;;;3.42;1.80;;;28.90;99.90;;;;;;5107371;28;20074;-47
2023/08/24 03:00:50;;;;;;;4.35;2.13;;;28.90;99.90;;;;;;5107795;28;20036;-46
2023/08/24 03:03:17;;;;;;;3.95;2.13;;;28.90;99.90;;;;;;5117875;28;20019;-48
2023/08/24 03:06:06;;;;;;;14.43;2.60;;;28.90;99.90;;;;;;5107504;28;20035;-48
2023/08/24 03:08:34;;;;;;;13.38;2.60;;;28.70;99.90;;;;;;5107026;28;20083;-51
2023/08/24 03:11:02;;;;;;;9.63;2.47;;;28.70;99.90;;;;;;5107546;28;20035;-44
2023/08/24 03:13:30;;;;;;;9.90;2.58;;;28.70;99.90;;;;;;5108446;28;20032;-53
2023/08/24 03:15:57;;;;;;;6.30;2.35;;;28.70;99.90;;;;;;5113914;27;20231;-49
2023/08/24 03:18:24;;;;;;;12.35;5.40;;;28.60;99.90;;;;;;5127488;28;20050;-53
2023/08/24 03:20:50;;;;;;;8.73;4.35;;;28.60;99.90;;;;;;5124944;27;20323;-63
2023/08/24 03:23:17;;;;;;;11.07;3.60;;;28.70;99.90;;;;;;5115697;28;20077;-43
2023/08/24 03:25:44;;;;;;;6.65;2.92;;;28.80;99.90;;;;;;5107090;28;20028;-52
2023/08/24 03:28:11;;;;;;;8.70;2.60;;;28.70;99.90;;;;;;5106340;28;20039;-51
2023/08/24 03:30:40;;;;;;;5.85;2.53;;;28.70;99.90;;;;;;5106866;28;20019;-50
2023/08/24 03:33:06;;;;;;;4.85;2.38;;;28.70;99.90;;;;;;5112694;28;20022;-45
2023/08/24 03:35:33;;;;;;;4.13;2.10;;;28.70;99.90;;;;;;5116053;28;20036;-44
2023/08/24 03:38:00;;;;;;;2.10;1.85;;;28.70;99.90;;;;;;5106425;28;20027;-45
2023/08/24 03:40:27;;;;;;;4.35;2.00;;;28.60;99.90;;;;;;5107055;28;20032;-51
2023/08/24 03:42:53;;;;;;;6.53;2.13;;;28.60;99.90;;;;;;5106463;28;20302;-52
2023/08/24 03:45:21;;;;;;;3.22;1.90;;;28.60;99.90;;;;;;5106572;28;20311;-49
2023/08/24 03:47:48;;;;;;;4.47;2.15;;;28.50;99.90;;;;;;5106403;28;20031;-44
2023/08/24 03:50:15;;;;;;;7.78;2.67;;;28.50;99.90;;;;;;5106646;28;20028;-54
2023/08/24 03:52:42;;;;;;;7.05;2.80;;;28.60;99.90;;;;;;5106249;28;20153;-49
2023/08/24 03:55:09;;;;;;;9.55;3.13;;;28.60;99.90;;;;;;5106526;28;20076;-49
2023/08/24 03:57:37;;;;;;;5.97;2.70;;;28.60;99.90;;;;;;5110531;28;20307;-46
2023/08/24 04:00:10;;;;;;;6.38;3.15;;;28.60;99.90;;;;;;5113239;28;20087;-44
2023/08/24 04:02:38;;;;;;;5.90;2.35;;;28.70;99.90;;;;;;5106056;28;20023;-50
2023/08/24 04:05:04;;;;;;;5.72;2.10;;;28.60;99.90;;;;;;5108114;28;20138;-45
2023/08/24 04:07:31;;;;;;;4.20;2.05;;;28.50;99.90;;;;;;5126397;28;20360;-53
2023/08/24 04:09:58;;;;;;;6.43;2.40;;;28.60;99.90;;;;;;5126702;28;20040;-55
2023/08/24 04:12:24;;;;;;;5.13;2.40;;;28.50;99.90;;;;;;5126542;28;20027;-55
2023/08/24 04:14:52;;;;;;;5.22;2.25;;;28.60;99.90;;;;;;5126287;28;20023;-44
2023/08/24 04:17:18;;;;;;;4.90;2.38;;;28.60;99.90;;;;;;5126425;28;20047;-51
2023/08/24 04:19:45;;;;;;;3.95;2.30;;;28.60;99.90;;;;;;5126564;28;20059;-52
2023/08/24 04:22:12;;;;;;;4.00;2.17;;;28.60;99.90;;;;;;5126099;28;20196;-47
2023/08/24 04:24:38;;;;;;;3.65;2.22;;;28.60;99.90;;;;;;5126275;27;20377;-44
2023/08/24 04:27:05;;;;;;;4.82;2.05;;;28.60;99.90;;;;;;5126127;27;20035;-47
2023/08/24 04:29:32;;;;;;;3.60;2.17;;;28.60;99.90;;;;;;5126147;28;20223;-44
2023/08/24 04:31:58;;;;;;;4.38;2.22;;;28.60;99.90;;;;;;5126026;28;20027;-47
2023/08/24 04:34:26;;;;;;;4.70;2.30;;;28.70;99.90;;;;;;5126072;28;20103;-51
2023/08/24 04:36:54;;;;;;;3.85;2.28;;;28.70;99.90;;;;;;5118593;28;20027;-45
2023/08/24 04:39:21;;;;;;;3.70;2.40;;;28.70;99.90;;;;;;5117284;28;20076;-52
2023/08/24 04:41:47;;;;;;;6.05;2.38;;;28.60;99.90;;;;;;5125955;28;20032;-44
2023/08/24 04:44:14;;;;;;;3.85;2.35;;;28.60;99.90;;;;;;5125549;28;20069;-44
2023/08/24 04:46:41;;;;;;;3.45;2.58;;;28.50;99.90;;;;;;5125844;28;20029;-44
2023/08/24 04:49:08;;;;;;;3.53;2.45;;;28.50;99.90;;;;;;5125919;28;20031;-44
2023/08/24 04:51:35;;;;;;;8.77;2.78;;;28.50;99.90;;;;;;5125467;28;20080;-46
2023/08/24 04:54:02;;;;;;;3.40;2.72;;;28.50;99.90;;;;;;5125582;28;20086;-47
2023/08/24 04:56:29;;;;;;;3.83;2.75;;;28.40;99.90;;;;;;5125523;28;20032;-43
2023/08/24 04:58:56;;;;;;;4.97;3.35;;;28.30;99.90;;;;;;5125246;28;20026;-43
2023/08/24 05:01:27;;;;;;;11.13;3.05;;;28.30;99.90;;;;;;5125424;28;20030;-44
2023/08/24 05:03:54;;;;;;;5.68;3.10;;;28.20;99.90;;;;;;5125263;28;20252;-49
2023/08/24 05:06:21;;;;;;;3.63;2.72;;;28.20;99.90;;;;;;5125020;28;20083;-43
2023/08/24 05:08:48;;;;;;;5.50;3.40;;;28.30;99.90;;;;;;5125200;28;20027;-49
2023/08/24 05:11:19;;;;;;;6.38;3.20;;;28.30;99.90;;;;;;5125221;28;20051;-43
2023/08/24 05:13:46;;;;;;;5.77;3.10;;;28.30;99.90;;;;;;5124606;28;20082;-46
2023/08/24 05:16:14;;;;;;;7.07;3.30;;;28.20;99.90;;;;;;5125024;28;20344;-46
2023/08/24 05:18:40;;;;;;;10.50;3.63;;;28.20;99.90;;;;;;5125216;28;20035;-45
2023/08/24 05:21:07;;;;;;;4.80;3.50;;;28.20;99.90;;;;;;5124821;28;20028;-50
2023/08/24 05:23:35;;;;;;;5.97;3.60;;;28.20;99.90;;;;;;5125005;28;20058;-42
2023/08/24 05:26:03;;;;;;;5.75;3.40;;;28.20;99.90;;;;;;5125376;28;20323;-47
2023/08/24 05:28:31;;;;;;;6.60;3.80;;;28.30;99.90;;;;;;5124808;28;20011;-44
2023/08/24 05:30:58;;;;;;;6.03;4.05;;;28.30;99.90;;;;;;5125308;28;20023;-45
2023/08/24 05:33:25;;;;;;;4.07;3.40;;;28.30;99.90;;;;;;5124847;28;20028;-48
2023/08/24 05:35:52;;;;;;;4.68;3.70;;;28.30;99.90;;;;;;5125408;28;20150;-52
2023/08/24 05:38:19;;;;;;;6.82;4.00;;;28.20;99.90;;;;;;5124777;28;20206;-56
2023/08/24 05:40:50;;;;;;;5.28;3.15;;;28.20;99.90;;;;;;5124822;28;20103;-52
2023/08/24 05:43:16;;;;;;;4.70;3.25;;;28.30;99.90;;;;;;5124596;28;20253;-54
2023/08/24 05:45:44;;;;;;;6.28;3.10;;;28.30;99.90;;;;;;5125159;28;20059;-59
2023/08/24 05:48:11;;;;;;;4.68;3.20;;;28.20;99.90;;;;;;5124955;28;20032;-53
2023/08/24 05:50:43;;;;;;;5.00;3.20;;;28.30;99.90;;;;;;5124828;28;20204;-54
2023/08/24 05:53:09;;;;;;;3.53;3.00;;;28.40;99.90;;;;;;5124631;28;20192;-53
2023/08/24 05:55:36;;;;;;;4.40;3.10;;;28.40;99.90;;;;;;5124976;28;20321;-59
2023/08/24 05:58:03;;;;;;;4.80;3.15;;;28.30;99.90;;;;;;5124363;28;20027;-52
2023/08/24 06:00:29;;;;;;;3.78;3.13;;;28.30;99.90;;;;;;5124848;28;20027;-58
2023/08/24 06:02:56;;;;;;;6.13;2.90;;;28.30;99.90;;;;;;5124423;28;20054;-56
2023/08/24 06:05:22;;;;;;;5.22;3.03;;;28.30;99.90;;;;;;5124128;28;20319;-53
2023/08/24 08:39:10;;;;;;;5.38;3.00;;;27.70;99.90;;;;;;5120631;28;20093;-55
2023/08/24 08:41:46;;;;;;;5.53;3.58;;;27.70;99.90;;;;;;5113403;28;20201;-53
2023/08/24 08:44:14;;;;;;;6.47;3.78;;;27.70;99.90;;;;;;5125617;28;20027;-45
2023/08/24 08:46:45;;;;;;;5.75;3.30;;;27.70;99.90;;;;;;5125538;28;20022;-46
2023/08/24 08:49:16;;;;;;;3.90;2.90;;;27.70;99.90;;;;;;5124838;28;20030;-52
2023/08/24 08:51:43;;;;;;;4.50;2.78;;;27.70;99.90;;;;;;5125544;28;20027;-54
2023/08/24 08:54:09;;;;;;;4.82;2.50;;;27.70;99.90;;;;;;5125590;28;20091;-53
2023/08/24 08:56:36;;;;;;;4.57;2.97;;;27.70;99.90;;;;;;5125526;28;20057;-53
2023/08/24 08:59:07;;;;;;;4.07;2.70;;;27.60;99.90;;;;;;5125278;28;20036;-53
2023/08/24 09:01:34;;;;;;;6.63;2.63;;;27.60;99.90;;;;;;5125455;28;20022;-51
2023/08/24 09:04:01;;;;;;;3.55;2.45;;;27.60;99.90;;;;;;5120181;28;20026;-44
2023/08/24 09:06:28;;;;;;;6.32;2.80;;;27.60;99.90;;;;;;5118631;28;20060;-42
2023/08/24 09:08:56;;;;;;;17.10;3.17;;;27.60;99.90;;;;;;5104925;28;20079;-44
2023/08/24 09:11:23;;;;;;;15.77;3.10;;;27.60;99.90;;;;;;5104850;28;20023;-43
2023/08/24 09:13:50;;;;;;;9.38;2.45;;;27.70;99.90;;;;;;5104649;28;20238;-43
2023/08/24 09:16:17;;;;;;;4.28;2.58;;;27.70;99.90;;;;;;5104994;28;20069;-51
2023/08/24 09:18:46;;;;;;;11.50;3.10;;;27.70;99.90;;;;;;5104755;28;20294;-43
2023/08/24 09:21:15;;;;;;;5.68;2.90;;;27.70;99.90;;;;;;5104637;28;20040;-44
2023/08/24 09:23:59;;;;;;;4.93;2.60;;;27.70;99.90;;;;;;5104664;28;20214;-44
2023/08/24 09:26:35;;;;;;;9.00;2.70;;;27.70;99.90;;;;;;5104410;28;20080;-51
2023/08/24 09:29:15;;;;;;;5.32;2.80;;;27.70;99.90;;;;;;5104567;28;20024;-46
2023/08/24 09:31:46;;;;;;;6.43;2.70;;;27.70;99.90;;;;;;5104471;28;20087;-44
2023/08/24 09:34:13;;;;;;;5.03;2.78;;;27.70;99.90;;;;;;5104553;28;20020;-47
2023/08/24 09:36:41;;;;;;;4.07;3.00;;;27.70;99.90;;;;;;5104510;28;20316;-48
2023/08/24 09:39:08;;;;;;;7.65;2.72;;;27.60;99.90;;;;;;5104247;28;20056;-47
2023/08/24 09:41:43;;;;;;;4.82;2.92;;;27.70;99.90;;;;;;5104463;28;20079;-49
2023/08/24 09:44:11;;;;;;;4.60;3.00;;;27.70;99.90;;;;;;5104113;28;20024;-44
2023/08/24 09:46:41;;;;;;;8.15;3.22;;;27.60;99.90;;;;;;5104306;28;20026;-44
2023/08/24 09:49:09;;;;;;;8.52;2.97;;;27.60;99.90;;;;;;5103944;28;20087;-52
2023/08/24 09:51:37;;;;;;;3.92;2.83;;;27.60;99.90;;;;;;5104087;28;20019;-47
2023/08/24 09:54:09;;;;;;;6.20;3.22;;;27.70;99.90;;;;;;5104312;28;20008;-49
2023/08/24 09:56:37;;;;;;;10.05;2.95;;;27.70;99.90;;;;;;5104159;28;20083;-44
2023/08/24 09:59:17;;;;;;;3.63;2.83;;;27.70;99.90;;;;;;5103991;28;20020;-51
2023/08/24 10:01:48;;;;;;;4.95;2.65;;;27.70;99.90;;;;;;5103873;28;20084;-45
2023/08/24 10:04:21;;;;;;;8.40;3.08;;;27.70;99.90;;;;;;5103919;28;20016;-47
2023/08/24 10:06:55;;;;;;;6.22;2.90;;;27.60;99.90;;;;;;5104025;28;20016;-51
2023/08/24 10:09:27;;;;;;;8.43;2.80;;;27.70;99.90;;;;;;5103985;28;20023;-60
2023/08/24 10:11:58;;;;;;;3.00;2.60;;;27.60;99.90;;;;;;5103996;28;20039;-43
2023/08/24 10:14:49;;;;;;;5.00;3.10;;;27.60;99.90;;;;;;5104175;28;20035;-44
2023/08/24 10:17:16;;;;;;;6.63;3.20;;;27.60;99.90;;;;;;5097182;28;20031;-48
2023/08/24 10:19:43;;;;;;;8.35;2.90;;;27.50;99.90;;;;;;5103804;28;20269;-50
2023/08/24 10:22:11;;;;;;;4.82;3.10;;;27.50;99.90;;;;;;5103737;28;20043;-48
2023/08/24 10:24:37;;;;;;;7.82;2.70;;;27.50;99.90;;;;;;5103958;28;20024;-48
2023/08/24 10:27:05;;;;;;;4.28;3.00;;;27.50;99.90;;;;;;5103862;28;20122;-55
2023/08/24 10:29:32;;;;;;;6.72;3.53;;;27.50;99.90;;;;;;5103828;28;20023;-48
2023/08/24 10:31:59;;;;;;;9.57;4.05;;;27.50;99.90;;;;;;5104044;28;20027;-55
2023/08/24 10:34:25;;;;;;;9.75;3.50;;;27.50;99.90;;;;;;5103811;28;20103;-44
2023/08/24 10:36:53;;;;;;;7.88;3.65;;;27.50;99.90;;;;;;5103572;28;20016;-47
2023/08/24 10:39:28;;;;;;;8.80;3.55;;;27.50;99.90;;;;;;5103568;28;20388;-43
2023/08/24 10:41:55;;;;;;;14.13;3.50;;;27.50;99.90;;;;;;5103736;28;20024;-44
2023/08/24 10:44:25;;;;;;;6.28;3.20;;;27.50;99.90;;;;;;5103608;28;20142;-48
2023/08/24 10:47:18;;;;;;;9.00;3.72;;;27.50;99.90;;;;;;5103891;28;20023;-47
2023/08/24 10:49:55;;;;;;;7.85;3.95;;;27.40;99.90;;;;;;5103475;28;20031;-49
2023/08/24 10:52:43;;;;;;;8.73;3.80;;;27.50;99.90;;;;;;5103579;28;20016;-43
2023/08/24 10:55:27;;;;;;;7.40;3.60;;;27.40;99.90;;;;;;5103931;28;20074;-45
2023/08/24 10:58:00;;;;;;;9.95;3.80;;;27.40;99.90;;;;;;5103396;28;20021;-48
2023/08/24 11:00:30;;;;;;;5.85;3.58;;;27.40;99.90;;;;;;5103960;28;20032;-45
2023/08/24 11:02:58;;;;;;;5.55;3.53;;;27.50;99.90;;;;;;5118542;28;20024;-58
2023/08/24 11:05:32;;;;;;;5.25;3.05;;;27.50;99.90;;;;;;5123730;28;20038;-58
2023/08/24 11:08:01;;;;;;;4.28;3.40;;;27.50;99.90;;;;;;5116642;28;20086;-59
2023/08/24 11:10:43;;;;;;;9.52;3.45;;;27.50;99.90;;;;;;5107011;28;20020;-61
2023/08/24 11:13:13;;;;;;;7.30;3.40;;;27.50;99.90;;;;;;5105615;28;20020;-62
2023/08/24 11:15:42;;;;;;;9.13;3.53;;;27.60;99.90;;;;;;5107347;28;20051;-54
2023/08/24 11:18:34;;;;;;;10.57;4.75;;;27.60;99.90;;;;;;5111317;28;20052;-54
2023/08/24 11:21:02;;;;;;;7.25;4.72;;;27.70;99.90;;;;;;5121875;28;20042;-54
2023/08/24 11:23:30;;;;;;;5.93;4.50;;;27.70;99.90;;;;;;5127443;28;20024;-53
2023/08/24 11:25:59;;;;;;;9.95;5.05;;;27.80;99.90;;;;;;5127736;28;20057;-54
2023/08/24 11:28:27;;;;;;;11.60;4.25;;;27.80;99.90;;;;;;5127186;28;20020;-55
2023/08/24 11:30:55;;;;;;;8.77;3.72;;;27.80;99.90;;;;;;5127746;28;20024;-55
2023/08/24 11:33:31;;;;;;;6.68;3.83;;;27.80;99.90;;;;;;5127193;28;20019;-55
2023/08/24 11:35:59;;;;;;;8.32;3.67;;;27.90;99.90;;;;;;5127567;28;20027;-52
2023/08/24 11:38:25;;;;;;;9.38;3.85;;;27.90;99.90;;;;;;5126967;28;20059;-56
2023/08/24 11:40:52;;;;;;;6.30;3.55;;;28.00;99.90;;;;;;5127031;28;20037;-54
2023/08/24 11:43:26;;;;;;;8.35;3.53;;;28.00;99.90;;;;;;5126993;28;20076;-61
2023/08/24 11:45:55;;;;;;;9.73;3.50;;;28.00;99.90;;;;;;5127125;28;20066;-52
2023/08/24 11:48:29;;;;;;;4.63;3.00;;;28.10;99.90;;;;;;5107696;28;20016;-55
2023/08/24 11:50:57;;;;;;;6.03;3.50;;;28.10;99.90;;;;;;5106257;28;20267;-52
2023/08/24 11:53:24;;;;;;;6.65;3.28;;;28.20;99.90;;;;;;5125762;28;20024;-52
2023/08/24 11:55:54;;;;;;;6.93;3.25;;;28.20;99.90;;;;;;5109712;28;20181;-52
2023/08/24 11:58:21;;;;;;;6.20;3.40;;;28.20;99.90;;;;;;5106291;28;20020;-53
2023/08/24 12:00:48;;;;;;;7.03;3.08;;;28.20;99.90;;;;;;5110383;28;20028;-51
2023/08/24 12:03:14;;;;;;;5.18;3.13;;;28.20;99.90;;;;;;5126519;28;20245;-56
2023/08/24 12:05:41;;;;;;;6.97;2.95;;;28.30;99.90;;;;;;5126861;28;20096;-53
2023/08/24 12:08:11;;;;;;;6.35;3.17;;;28.30;99.90;;;;;;5126564;28;20218;-52
2023/08/24 12:10:45;;;;;;;6.32;3.00;;;28.30;99.90;;;;;;5126723;28;20076;-52
2023/08/24 12:13:13;;;;;;;5.88;3.08;;;28.30;99.90;;;;;;5126574;28;20011;-52
2023/08/24 12:15:41;;;;;;;6.30;3.40;;;28.30;99.90;;;;;;5126666;28;20151;-46
2023/08/24 12:18:12;;;;;;;5.28;3.08;;;28.30;99.90;;;;;;5126325;28;20026;-44
2023/08/24 12:20:39;;;;;;;4.72;3.25;;;28.40;99.90;;;;;;5126221;28;20068;-43
2023/08/24 12:23:07;;;;;;;6.38;3.33;;;28.40;99.90;;;;;;5126077;28;20012;-47
2023/08/24 12:25:44;;;;;;;13.70;3.83;;;28.40;99.90;;;;;;5126477;28;20036;-48
2023/08/24 12:28:13;;;;;;;6.75;3.55;;;28.50;99.90;;;;;;5126087;28;20019;-51
2023/08/24 12:30:50;;;;;;;9.27;3.38;;;28.50;99.90;;;;;;5126425;28;20027;-50
2023/08/24 12:33:23;;;;;;;8.10;3.40;;;28.50;99.90;;;;;;5125212;28;20053;-45
2023/08/24 12:35:51;;;;;;;8.80;3.60;;;28.60;99.90;;;;;;5112514;28;20028;-49
2023/08/24 12:38:18;;;;;;;10.43;3.70;;;28.60;99.90;;;;;;5113086;27;20040;-45
2023/08/24 12:40:44;;;;;;;6.07;3.22;;;28.60;99.90;;;;;;5114160;27;20032;-44
2023/08/24 12:43:11;;;;;;;9.73;3.15;;;28.70;99.90;;;;;;5111149;28;20220;-52
2023/08/24 12:45:39;;;;;;;8.00;3.10;;;28.70;99.90;;;;;;5105633;28;20413;-52
2023/08/24 12:48:07;;;;;;;7.18;3.30;;;28.70;99.90;;;;;;5111185;27;20031;-52
2023/08/24 12:50:37;;;;;;;4.38;3.13;;;28.80;99.90;;;;;;5105833;28;20211;-51
2023/08/24 12:53:06;;;;;;;3.40;2.92;;;28.80;99.90;;;;;;5118091;28;20019;-52
2023/08/24 12:55:34;;;;;;;4.15;3.13;;;28.80;99.90;;;;;;5121750;27;20035;-43
2023/08/24 12:58:00;;;;;;;6.32;3.03;;;28.80;99.90;;;;;;5121517;28;20319;-43
2023/08/24 13:00:27;;;;;;;6.82;3.30;;;28.80;99.90;;;;;;5124016;28;20042;-48
2023/08/24 13:02:54;;;;;;;5.25;3.13;;;28.80;99.90;;;;;;5123044;28;20024;-44
2023/08/24 13:05:20;;;;;;;5.88;2.88;;;28.90;99.90;;;;;;5120190;28;20016;-54
2023/08/24 13:07:47;;;;;;;4.25;3.08;;;28.90;99.90;;;;;;5116150;28;21262;-48
2023/08/24 13:10:14;;;;;;;7.85;4.40;;;28.90;99.90;;;;;;5118596;28;20318;-43
2023/08/24 13:12:40;;;;;;;3.97;3.35;;;29.00;99.90;;;;;;5118968;28;20086;-59
2023/08/24 13:15:07;;;;;;;29.65;4.50;;;29.00;99.90;;;;;;5108794;28;20023;-45
2023/08/24 13:17:34;;;;;;;29.25;4.80;;;28.90;99.90;;;;;;5121555;28;20028;-46
2023/08/24 13:20:01;;;;;;;76.43;8.05;;;29.00;99.90;;;;;;5117567;28;20028;-49
2023/08/24 13:22:27;;;;;;;48.72;7.07;;;29.00;99.90;;;;;;5125114;28;20121;-43
2023/08/24 13:24:54;;;;;;;51.78;6.68;;;29.00;99.90;;;;;;5115543;28;20024;-44
2023/08/24 13:27:20;;;;;;;52.00;5.82;;;29.00;99.90;;;;;;5117792;28;20019;-44
2023/08/24 13:29:47;;;;;;;49.03;6.13;;;29.10;99.90;;;;;;5120736;27;20016;-51
2023/08/24 13:32:13;;;;;;;31.20;6.00;;;29.10;99.90;;;;;;5107663;28;20023;-43
2023/08/24 13:34:40;;;;;;;60.50;7.18;;;29.10;99.90;;;;;;5111861;28;20034;-48
2023/08/24 13:37:06;;;;;;;34.70;6.20;;;29.10;99.90;;;;;;5116391;28;20027;-42
2023/08/24 13:39:33;;;;;;;32.33;6.63;;;29.20;99.90;;;;;;5114141;28;20227;-51
2023/08/24 13:42:01;;;;;;;43.30;6.82;;;29.20;99.90;;;;;;5113912;27;20015;-44
2023/08/24 13:44:28;;;;;;;47.55;8.43;;;29.20;99.90;;;;;;5114672;28;20052;-43
2023/08/24 13:46:54;;;;;;;43.28;6.68;;;29.30;99.90;;;;;;5124474;28;20012;-56
2023/08/24 13:49:21;;;;;;;43.97;7.60;;;29.30;99.90;;;;;;5111975;27;20038;-49
2023/08/24 13:51:47;;;;;;;42.53;6.53;;;29.40;99.90;;;;;;5107950;28;20016;-43
2023/08/24 13:54:16;;;;;;;55.92;7.07;;;29.30;99.90;;;;;;5118288;28;20031;-48
2023/08/24 13:56:43;;;;;;;48.50;7.53;;;29.30;99.90;;;;;;5117608;28;20024;-42
2023/08/24 13:59:10;;;;;;;44.78;7.60;;;29.30;99.90;;;;;;5115328;28;20249;-46
2023/08/24 14:01:37;;;;;;;38.30;6.32;;;29.40;99.90;;;;;;5116219;28;20043;-49
2023/08/24 14:04:05;;;;;;;36.83;6.90;;;29.40;99.90;;;;;;5121204;28;20166;-57
2023/08/24 14:06:34;;;;;;;31.58;5.30;;;29.40;99.90;;;;;;5119073;28;20050;-52
2023/08/24 14:09:02;;;;;;;32.60;6.03;;;29.40;99.90;;;;;;5106133;28;20040;-44
2023/08/24 14:11:29;;;;;;;21.98;5.53;;;29.50;99.90;;;;;;5103868;28;20085;-42
2023/08/24 14:13:56;;;;;;;21.50;4.93;;;29.50;99.90;;;;;;5111248;28;20016;-50
2023/08/24 14:16:22;;;;;;;16.67;5.10;;;29.50;99.90;;;;;;5124456;28;20020;-46
2023/08/24 14:18:49;;;;;;;21.02;5.53;;;29.50;99.90;;;;;;5124067;28;20024;-43
2023/08/24 14:21:16;;;;;;;16.70;4.45;;;29.60;99.90;;;;;;5106823;28;20019;-44
2023/08/24 14:23:43;;;;;;;15.32;4.63;;;29.60;99.90;;;;;;5104236;28;20077;-48
2023/08/24 14:26:12;;;;;;;13.15;5.03;;;29.60;99.90;;;;;;5123594;28;20032;-51
2023/08/24 14:28:56;;;;;;;18.20;4.38;;;29.70;99.90;;;;;;5107500;28;20016;-45
2023/08/24 14:31:28;;;;;;;15.27;4.53;;;29.70;99.90;;;;;;5103729;28;20024;-54
2023/08/24 14:33:55;;;;;;;;;;;29.70;99.90;;;;;;5121017;28;20019;-53
2023/08/24 14:36:22;;;;;;;19.13;4.72;;;29.70;99.90;;;;;;5124157;28;20193;-52
2023/08/24 14:38:51;;;;;;;19.67;5.30;;;29.70;99.90;;;;;;5123826;28;20035;-55
2023/08/24 14:41:19;;;;;;;18.90;4.30;;;29.70;99.90;;;;;;5120158;28;20032;-43
2023/08/24 14:43:46;;;;;;;17.90;5.25;;;29.70;99.90;;;;;;5105755;28;20032;-42
2023/08/24 14:46:13;;;;;;;25.45;5.03;;;29.70;99.90;;;;;;5114283;28;20292;-45
2023/08/24 14:48:40;;;;;;;17.67;5.75;;;29.80;99.90;;;;;;5123212;28;20079;-42
2023/08/24 14:51:06;;;;;;;15.75;4.63;;;29.80;99.90;;;;;;5128449;28;20026;-41
2023/08/24 14:53:33;;;;;;;12.18;4.60;;;29.80;99.90;;;;;;5127829;28;20042;-42
2023/08/24 14:56:00;;;;;;;10.80;4.50;;;29.80;99.90;;;;;;5116396;27;20054;-49
2023/08/24 14:58:27;;;;;;;13.02;4.82;;;29.80;99.90;;;;;;5107553;28;20028;-41
2023/08/24 15:00:56;;;;;;;10.68;4.50;;;29.80;99.90;;;;;;5113662;28;20031;-45
2023/08/24 15:03:24;;;;;;;9.80;4.88;;;29.80;99.90;;;;;;5127710;28;20023;-42
2023/08/24 15:05:59;;;;;;;10.48;4.65;;;29.90;99.90;;;;;;5127516;28;20027;-43
2023/08/24 15:08:26;;;;;;;10.55;4.55;;;29.90;99.90;;;;;;5111708;28;20056;-48
2023/08/24 15:10:56;;;;;;;7.13;4.15;;;29.90;99.90;;;;;;5107739;28;20031;-43
2023/08/24 15:13:27;;;;;;;5.82;4.07;;;30.00;99.90;;;;;;5107670;28;20065;-45
2023/08/24 15:15:55;;;;;;;10.00;4.47;;;30.00;99.90;;;;;;5114900;27;20026;-47
2023/08/24 15:18:27;;;;;;;7.60;4.18;;;30.00;99.90;;;;;;5121369;28;20027;-42
2023/08/24 15:20:53;;;;;;;10.15;4.30;;;30.10;99.90;;;;;;5107299;28;20043;-45
2023/08/24 15:23:30;;;;;;;5.70;4.18;;;30.10;99.90;;;;;;5106985;28;20035;-44